Time;durP1;ratioP1;P1;durP2;ratioP2;P2;SDS_P1;SDS_P2;PMS_P1;PMS_P2;Temp;Humidity;BMP_temperature;BMP_pressure;BME280_temperature;BME280_humidity;BME280_pressure;Samples;Min_cycle;Max_cycle;Signal;HPM_P1;HPM_P2
2022/06/16 00:00:14;;;;;;;6.60;4.05;;;13.50;99.90;;;;;;5008990;28;20068;-69
2022/06/16 00:02:41;;;;;;;8.70;3.90;;;13.50;99.90;;;;;;5033597;28;20116;-69
2022/06/16 00:05:09;;;;;;;5.35;3.75;;;13.40;99.90;;;;;;5010086;28;20026;-69
2022/06/16 00:07:36;;;;;;;7.10;3.88;;;13.40;99.90;;;;;;4987775;28;20586;-69
2022/06/16 00:10:03;;;;;;;7.63;3.90;;;13.40;99.90;;;;;;5010029;28;20060;-69
2022/06/16 00:12:29;;;;;;;5.20;3.50;;;13.30;99.90;;;;;;5012497;28;20057;-69
2022/06/16 00:14:54;;;;;;;9.30;3.83;;;13.30;99.90;;;;;;5031252;28;20115;-69
2022/06/16 00:17:20;;;;;;;7.00;3.78;;;13.30;99.90;;;;;;5010620;28;20482;-70
2022/06/16 00:19:46;;;;;;;7.53;3.58;;;13.30;99.90;;;;;;5012691;28;20057;-69
2022/06/16 00:22:12;;;;;;;8.63;3.63;;;13.30;99.90;;;;;;5011630;28;20045;-69
2022/06/16 00:24:38;;;;;;;5.13;3.63;;;13.30;99.90;;;;;;5015098;28;20671;-69
2022/06/16 00:27:04;;;;;;;8.73;4.13;;;13.30;99.90;;;;;;5028470;28;20037;-69
2022/06/16 00:29:29;;;;;;;5.25;3.72;;;13.20;99.90;;;;;;5030821;28;20049;-69
2022/06/16 00:31:55;;;;;;;7.90;3.80;;;13.20;99.90;;;;;;5031395;28;20717;-69
2022/06/16 00:34:21;;;;;;;7.20;3.92;;;13.20;99.90;;;;;;5008101;28;20057;-69
2022/06/16 00:36:46;;;;;;;6.65;4.45;;;13.10;99.90;;;;;;5012939;28;20029;-69
2022/06/16 00:39:12;;;;;;;5.55;3.83;;;13.20;99.90;;;;;;5026581;28;20418;-69
2022/06/16 00:41:38;;;;;;;8.90;4.22;;;13.20;99.90;;;;;;5010991;28;21478;-69
2022/06/16 00:44:33;;;;;;;7.60;3.70;;;13.10;99.90;;;;;;5014671;28;20037;-69
2022/06/16 00:46:59;;;;;;;6.78;3.90;;;13.10;99.90;;;;;;5013075;28;20105;-69
2022/06/16 00:49:26;;;;;;;8.23;4.30;;;13.10;99.90;;;;;;5032063;28;20061;-69
2022/06/16 00:51:58;;;;;;;6.53;3.85;;;13.10;99.90;;;;;;5012851;28;20080;-69
2022/06/16 00:54:32;;;;;;;7.45;3.95;;;13.00;99.90;;;;;;4990482;28;20087;-69
2022/06/16 00:57:05;;;;;;;6.18;4.00;;;12.90;99.90;;;;;;5028718;28;20083;-69
2022/06/16 00:59:32;;;;;;;6.85;4.10;;;12.90;99.90;;;;;;5013371;28;20478;-69
2022/06/16 01:01:59;;;;;;;9.98;4.18;;;12.90;99.90;;;;;;4993616;28;20140;-69
2022/06/16 01:07:14;;;;;;;8.32;4.22;;;12.90;99.90;;;;;;5013160;28;20137;-69
2022/06/16 01:09:41;;;;;;;6.00;4.15;;;12.80;99.90;;;;;;4993746;28;20050;-69
2022/06/16 01:15:43;;;;;;;7.97;4.38;;;12.80;99.90;;;;;;5011928;28;20079;-69
2022/06/16 01:18:27;;;;;;;7.28;4.07;;;12.80;99.90;;;;;;4979194;28;20053;-69
2022/06/16 01:20:56;;;;;;;5.95;3.80;;;12.80;99.90;;;;;;5012316;28;20034;-69
2022/06/16 01:23:24;;;;;;;6.07;4.15;;;12.80;99.90;;;;;;5011806;28;20045;-69
2022/06/16 01:25:53;;;;;;;6.10;4.13;;;12.80;99.90;;;;;;5008394;28;20068;-69
2022/06/16 01:28:28;;;;;;;10.82;4.35;;;12.80;99.90;;;;;;5012287;28;20128;-69
2022/06/16 01:31:09;;;;;;;7.25;4.00;;;12.80;99.90;;;;;;5029370;28;20033;-69
2022/06/16 01:34:03;;;;;;;8.23;4.07;;;12.80;99.90;;;;;;5012091;28;20052;-69
2022/06/16 01:36:54;;;;;;;6.00;3.97;;;12.80;99.90;;;;;;5029436;28;20120;-69
2022/06/16 01:39:31;;;;;;;7.25;3.92;;;12.80;99.90;;;;;;5031489;28;20041;-69
2022/06/16 01:42:26;;;;;;;5.30;4.10;;;12.80;99.90;;;;;;5029219;28;20037;-69
2022/06/16 01:44:56;;;;;;;7.85;4.20;;;12.80;99.90;;;;;;4996352;28;20053;-69
2022/06/16 01:47:25;;;;;;;6.85;3.63;;;12.80;99.90;;;;;;5010694;28;20584;-69
2022/06/16 01:50:00;;;;;;;8.55;4.47;;;12.80;99.90;;;;;;5029903;28;20049;-69
2022/06/16 01:52:35;;;;;;;5.95;4.28;;;12.80;99.90;;;;;;5009410;28;20386;-69
2022/06/16 01:55:11;;;;;;;6.50;4.15;;;12.80;99.90;;;;;;5011385;28;20516;-69
2022/06/16 01:57:55;;;;;;;9.00;3.92;;;12.80;99.90;;;;;;5008303;28;20217;-69
2022/06/16 02:00:24;;;;;;;8.50;4.07;;;12.80;99.90;;;;;;5007642;28;20077;-69
2022/06/16 02:03:05;;;;;;;10.25;4.00;;;12.80;99.90;;;;;;4992885;28;20284;-69
2022/06/16 02:05:38;;;;;;;9.30;4.60;;;12.70;99.90;;;;;;5029961;28;20091;-69
2022/06/16 02:08:16;;;;;;;7.10;3.90;;;12.70;99.90;;;;;;5027678;28;20037;-69
2022/06/16 02:10:47;;;;;;;9.55;4.10;;;12.70;99.90;;;;;;4993909;28;20485;-69
2022/06/16 02:13:19;;;;;;;13.52;5.20;;;12.70;99.90;;;;;;5027958;28;20124;-69
2022/06/16 02:16:01;;;;;;;6.63;4.32;;;12.70;99.90;;;;;;5029079;28;20048;-69
2022/06/16 02:18:36;;;;;;;8.65;4.95;;;12.70;99.90;;;;;;5012887;28;20038;-69
2022/06/16 02:21:07;;;;;;;7.15;4.20;;;12.70;99.90;;;;;;5007696;28;20041;-69
2022/06/16 02:23:34;;;;;;;8.55;4.60;;;12.70;99.90;;;;;;5028108;28;20037;-69
2022/06/16 02:26:00;;;;;;;12.25;5.20;;;12.70;99.90;;;;;;5025055;28;20045;-69
2022/06/16 02:28:27;;;;;;;7.32;4.88;;;12.70;99.90;;;;;;5030547;28;20072;-69
2022/06/16 02:31:32;;;;;;;7.43;4.65;;;12.70;99.90;;;;;;5028070;28;20120;-69
2022/06/16 02:34:39;;;;;;;7.97;4.53;;;12.70;99.90;;;;;;4936925;28;20050;-69
2022/06/16 02:37:28;;;;;;;9.55;5.20;;;12.60;99.90;;;;;;4937970;28;20046;-69
2022/06/16 02:40:03;;;;;;;10.20;5.93;;;12.60;99.90;;;;;;5004617;28;20144;-69
2022/06/16 02:42:43;;;;;;;9.65;5.43;;;12.50;99.90;;;;;;5027432;28;20133;-69
2022/06/16 02:45:26;;;;;;;9.95;5.15;;;12.50;99.90;;;;;;5013002;28;20505;-69
2022/06/16 02:48:23;;;;;;;8.55;5.10;;;12.50;99.90;;;;;;5010272;28;20048;-69
2022/06/16 02:51:12;;;;;;;9.55;5.35;;;12.50;99.90;;;;;;5012368;28;20041;-69
2022/06/16 02:54:12;;;;;;;8.63;4.72;;;12.50;99.90;;;;;;5009018;28;20073;-69
2022/06/16 02:56:56;;;;;;;9.05;5.10;;;12.50;99.90;;;;;;5029080;28;20492;-69
2022/06/16 02:59:47;;;;;;;7.53;4.77;;;12.50;99.90;;;;;;5025492;28;20080;-69
2022/06/16 03:02:19;;;;;;;10.38;4.55;;;12.60;99.90;;;;;;5026805;28;20181;-69
2022/06/16 03:04:51;;;;;;;9.95;4.90;;;12.50;99.90;;;;;;5011427;28;20041;-69
2022/06/16 03:07:17;;;;;;;11.65;4.95;;;12.50;99.90;;;;;;5028957;28;20037;-69
2022/06/16 03:09:43;;;;;;;8.70;4.63;;;12.50;99.90;;;;;;5012400;28;20044;-69
2022/06/16 03:12:12;;;;;;;9.60;4.88;;;12.60;99.90;;;;;;5011535;28;20067;-69
2022/06/16 03:14:38;;;;;;;8.75;4.70;;;12.60;99.90;;;;;;5027453;28;20534;-69
2022/06/16 03:17:05;;;;;;;7.15;4.40;;;12.60;99.90;;;;;;5007457;28;20037;-69
2022/06/16 03:19:31;;;;;;;8.65;5.53;;;12.50;99.90;;;;;;5010238;28;20091;-69
2022/06/16 03:21:57;;;;;;;7.28;4.47;;;12.50;99.90;;;;;;5017288;28;20073;-69
2022/06/16 03:24:23;;;;;;;9.68;4.75;;;12.50;99.90;;;;;;5010930;28;20088;-69
2022/06/16 03:26:49;;;;;;;7.25;4.80;;;12.50;99.90;;;;;;5010276;28;20062;-69
2022/06/16 03:29:15;;;;;;;10.02;4.72;;;12.40;99.90;;;;;;5012214;28;20115;-69
2022/06/16 03:31:41;;;;;;;9.52;5.82;;;12.40;99.90;;;;;;5009374;28;20068;-69
2022/06/16 03:34:07;;;;;;;8.38;5.22;;;12.40;99.90;;;;;;5012884;28;20041;-69
2022/06/16 03:36:34;;;;;;;8.05;4.65;;;12.30;99.90;;;;;;5033391;28;20044;-69
2022/06/16 03:39:01;;;;;;;10.52;4.65;;;12.30;99.90;;;;;;5013722;28;20052;-69
2022/06/16 03:41:27;;;;;;;8.10;4.88;;;12.30;99.90;;;;;;5031837;28;20436;-69
2022/06/16 03:43:52;;;;;;;8.95;5.03;;;12.20;99.90;;;;;;5015307;28;20044;-69
2022/06/16 03:46:18;;;;;;;8.43;4.70;;;12.20;99.90;;;;;;5013669;28;20050;-69
2022/06/16 03:48:44;;;;;;;7.95;4.88;;;12.20;99.90;;;;;;5014895;28;20048;-69
2022/06/16 03:51:09;;;;;;;12.50;4.97;;;12.10;99.90;;;;;;5014656;28;20352;-69
2022/06/16 03:53:36;;;;;;;10.05;5.00;;;12.00;99.90;;;;;;5008528;28;20085;-69
2022/06/16 03:56:03;;;;;;;8.48;5.20;;;12.00;99.90;;;;;;5033502;28;20033;-69
2022/06/16 03:58:29;;;;;;;7.63;4.70;;;11.90;99.90;;;;;;5031699;28;20050;-69
2022/06/16 04:00:55;;;;;;;7.63;4.82;;;12.00;99.90;;;;;;5013306;28;20037;-69
2022/06/16 04:06:05;;;;;;;7.50;5.03;;;12.00;99.90;;;;;;5032952;28;20068;-69
2022/06/16 04:08:30;;;;;;;7.28;4.75;;;12.00;99.90;;;;;;5012531;28;20493;-69
2022/06/16 04:10:56;;;;;;;8.20;5.00;;;12.00;99.90;;;;;;5010905;28;20041;-69
2022/06/16 04:13:23;;;;;;;6.57;5.18;;;12.10;99.90;;;;;;4996500;28;20875;-69
2022/06/16 04:15:50;;;;;;;7.22;5.40;;;12.20;99.90;;;;;;5030680;28;20117;-69
2022/06/16 04:18:20;;;;;;;5.88;5.05;;;12.20;99.90;;;;;;5012225;28;20156;-69
2022/06/16 04:20:47;;;;;;;7.95;5.43;;;12.40;99.90;;;;;;5009765;28;20116;-69
2022/06/16 04:23:13;;;;;;;8.90;5.60;;;12.40;99.90;;;;;;5029586;28;20037;-69
2022/06/16 04:25:38;;;;;;;8.40;5.60;;;12.50;99.90;;;;;;5029545;28;20056;-69
2022/06/16 04:28:06;;;;;;;8.55;6.18;;;12.50;99.90;;;;;;4996481;28;20041;-69
2022/06/16 04:30:32;;;;;;;9.82;5.70;;;12.60;99.90;;;;;;5031737;28;20109;-69
2022/06/16 04:32:59;;;;;;;7.05;6.18;;;12.80;99.90;;;;;;5031050;28;20053;-69
2022/06/16 04:35:26;;;;;;;11.18;6.95;;;12.80;99.90;;;;;;5013096;28;20038;-69
2022/06/16 04:37:52;;;;;;;10.40;6.30;;;12.90;99.90;;;;;;5013733;28;20047;-69
2022/06/16 04:40:18;;;;;;;6.43;5.82;;;12.90;99.90;;;;;;5009827;28;20053;-69
2022/06/16 04:42:44;;;;;;;9.27;6.03;;;13.00;99.90;;;;;;5014247;28;20178;-69
2022/06/16 04:45:11;;;;;;;10.18;6.72;;;13.10;99.90;;;;;;5031478;28;20513;-69
2022/06/16 04:47:40;;;;;;;8.57;6.55;;;13.10;99.90;;;;;;5013066;28;20042;-69
2022/06/16 04:50:08;;;;;;;7.57;6.55;;;13.20;99.90;;;;;;5032705;28;20041;-69
2022/06/16 04:52:34;;;;;;;10.88;6.40;;;13.30;99.90;;;;;;4990920;28;20051;-69
2022/06/16 04:54:59;;;;;;;7.70;6.00;;;13.30;99.90;;;;;;5028733;28;20045;-69
2022/06/16 04:57:25;;;;;;;9.55;7.05;;;13.40;99.90;;;;;;5012141;28;20066;-69
2022/06/16 04:59:51;;;;;;;9.57;6.75;;;13.40;99.90;;;;;;5009306;28;20056;-69
2022/06/16 05:02:16;;;;;;;11.05;6.88;;;13.40;99.90;;;;;;5026441;28;20045;-69
2022/06/16 05:04:44;;;;;;;12.52;8.05;;;13.40;99.90;;;;;;5011330;28;20136;-69
2022/06/16 05:07:11;;;;;;;10.20;6.60;;;13.50;99.90;;;;;;5012599;28;20033;-69
2022/06/16 05:09:37;;;;;;;12.80;6.97;;;13.50;99.90;;;;;;5010438;28;20049;-69
2022/06/16 05:12:03;;;;;;;8.70;6.70;;;13.60;99.90;;;;;;5013407;28;20107;-69
2022/06/16 05:14:29;;;;;;;13.10;7.32;;;13.70;99.90;;;;;;5010178;28;20047;-69
2022/06/16 05:16:54;;;;;;;9.48;6.60;;;13.80;99.90;;;;;;5012372;28;20389;-69
2022/06/16 05:19:20;;;;;;;11.65;6.63;;;13.80;99.90;;;;;;4989088;28;20073;-69
2022/06/16 05:21:46;;;;;;;10.38;6.85;;;14.00;99.90;;;;;;5014109;28;20136;-69
2022/06/16 05:24:11;;;;;;;10.80;7.38;;;14.00;99.90;;;;;;4994109;28;20477;-69
2022/06/16 05:26:37;;;;;;;8.88;6.90;;;14.00;99.90;;;;;;5010813;28;20041;-69
2022/06/16 05:29:03;;;;;;;9.07;7.32;;;14.20;99.90;;;;;;5010286;28;20107;-69
2022/06/16 05:31:28;;;;;;;12.05;7.80;;;14.20;99.90;;;;;;5011660;28;20059;-69
2022/06/16 05:33:54;;;;;;;9.07;7.03;;;14.20;99.90;;;;;;5025211;28;20116;-69
2022/06/16 05:36:20;;;;;;;9.18;7.93;;;14.20;99.90;;;;;;5009935;28;20488;-69
2022/06/16 05:38:45;;;;;;;10.23;7.22;;;14.30;99.90;;;;;;5006917;28;20452;-69
2022/06/16 05:41:14;;;;;;;13.63;7.47;;;14.20;99.90;;;;;;5010783;28;20045;-69
2022/06/16 05:43:41;;;;;;;10.70;7.05;;;14.10;99.90;;;;;;5013089;28;20659;-69
2022/06/16 05:46:15;;;;;;;10.35;7.25;;;14.10;99.90;;;;;;5029358;28;20041;-69
2022/06/16 05:48:40;;;;;;;9.40;6.65;;;14.20;99.90;;;;;;5008516;28;20052;-69
2022/06/16 05:51:09;;;;;;;12.05;7.65;;;14.30;99.90;;;;;;5010065;28;20061;-70
2022/06/16 05:53:36;;;;;;;12.73;8.20;;;14.30;99.90;;;;;;5007247;28;20497;-71
2022/06/16 05:56:02;;;;;;;12.25;8.02;;;14.40;99.90;;;;;;5012580;28;20532;-67
2022/06/16 05:58:27;;;;;;;11.18;7.18;;;14.50;99.90;;;;;;5030552;28;20060;-66
2022/06/16 06:00:53;;;;;;;10.75;8.48;;;14.60;99.90;;;;;;5026721;28;20041;-66
2022/06/16 06:03:19;;;;;;;14.43;8.02;;;14.60;99.90;;;;;;5008563;28;20049;-65
2022/06/16 06:05:45;;;;;;;10.80;7.03;;;14.70;99.90;;;;;;5030956;28;20060;-65
2022/06/16 06:16:25;;;;;;;9.70;5.65;;;15.10;99.90;;;;;;5007922;28;20056;-68
2022/06/16 06:18:56;;;;;;;12.45;7.10;;;15.20;99.90;;;;;;5030047;28;20041;-69
2022/06/16 06:24:12;;;;;;;13.05;5.57;;;15.60;99.90;;;;;;4983295;28;20128;-69
2022/06/16 06:26:38;;;;;;;11.43;4.97;;;15.70;99.90;;;;;;4980435;28;20120;-69
2022/06/16 06:29:04;;;;;;;11.52;6.35;;;15.80;99.90;;;;;;5029462;28;20096;-69
2022/06/16 06:31:30;;;;;;;8.50;4.50;;;15.90;99.90;;;;;;5009471;28;20033;-69
2022/06/16 06:33:56;;;;;;;7.07;3.88;;;16.10;99.90;;;;;;5028158;28;20500;-69
2022/06/16 06:36:22;;;;;;;9.02;3.75;;;16.30;99.90;;;;;;5031867;28;20056;-69
2022/06/16 06:38:47;;;;;;;7.45;3.13;;;16.40;99.90;;;;;;5012123;28;20049;-69
2022/06/16 06:41:14;;;;;;;9.95;3.53;;;16.50;99.90;;;;;;5012330;28;20440;-68
2022/06/16 06:43:40;;;;;;;5.45;2.08;;;16.70;99.90;;;;;;5012129;28;20053;-70
2022/06/16 06:46:06;;;;;;;6.78;1.60;;;16.80;99.90;;;;;;5029732;28;20033;-70
2022/06/16 06:48:32;;;;;;;7.18;1.30;;;16.90;99.90;;;;;;5007641;28;20519;-70
2022/06/16 06:50:58;;;;;;;8.25;2.40;;;17.10;99.90;;;;;;5013768;28;20049;-70
2022/06/16 06:53:24;;;;;;;6.65;4.10;;;17.20;99.90;;;;;;5023396;28;20034;-70
2022/06/16 06:55:49;;;;;;;3.03;1.10;;;17.20;99.90;;;;;;5006032;28;20045;-70
2022/06/16 06:58:20;;;;;;;3.45;0.85;;;17.30;99.90;;;;;;5009244;28;20145;-69
2022/06/16 07:00:49;;;;;;;4.38;1.60;;;17.40;99.50;;;;;;5007672;28;20056;-69
2022/06/16 07:03:15;;;;;;;4.20;1.40;;;17.40;99.90;;;;;;5010173;28;20044;-70
2022/06/16 07:05:41;;;;;;;4.45;1.60;;;17.50;99.90;;;;;;5029007;28;20119;-70
2022/06/16 07:08:07;;;;;;;6.75;2.05;;;17.70;99.80;;;;;;5002663;28;20407;-69
2022/06/16 07:10:32;;;;;;;3.10;1.10;;;17.80;99.20;;;;;;5032157;28;20053;-69
2022/06/16 07:12:59;;;;;;;3.22;1.10;;;17.90;98.60;;;;;;5032987;28;20387;-69
2022/06/16 07:15:24;;;;;;;3.25;1.23;;;18.00;99.70;;;;;;5012821;28;20049;-70
2022/06/16 07:17:50;;;;;;;3.38;0.40;;;18.10;99.30;;;;;;5028004;28;20425;-68
2022/06/16 07:20:16;;;;;;;1.85;0.40;;;18.30;95.30;;;;;;5034905;28;20042;-70
2022/06/16 07:22:46;;;;;;;2.95;0.60;;;18.20;93.60;;;;;;5014588;28;20136;-69
2022/06/16 07:25:12;;;;;;;3.33;0.85;;;18.30;92.90;;;;;;5032907;28;20052;-73
2022/06/16 07:27:39;;;;;;;1.67;0.60;;;18.40;92.50;;;;;;5015536;28;20130;-70
2022/06/16 07:30:13;;;;;;;2.92;0.45;;;18.40;91.30;;;;;;5033954;28;20041;-70
2022/06/16 07:32:38;;;;;;;3.67;0.70;;;18.50;90.90;;;;;;5010796;28;20061;-70
2022/06/16 07:35:04;;;;;;;3.13;0.70;;;18.60;90.80;;;;;;5011903;28;20054;-70
2022/06/16 07:37:30;;;;;;;6.30;1.95;;;18.70;90.60;;;;;;5032056;28;20064;-69
2022/06/16 07:39:55;;;;;;;2.08;0.50;;;18.70;89.60;;;;;;5011664;28;20051;-70
2022/06/16 07:42:21;;;;;;;2.03;0.40;;;18.80;90.10;;;;;;5015426;28;20085;-70
2022/06/16 07:44:47;;;;;;;1.92;0.40;;;18.90;89.90;;;;;;5014093;28;20045;-70
2022/06/16 07:47:12;;;;;;;3.63;0.70;;;19.00;90.60;;;;;;5001078;28;20060;-70
2022/06/16 07:49:38;;;;;;;2.63;0.38;;;19.10;88.20;;;;;;5010145;28;20053;-70
2022/06/16 07:52:04;;;;;;;2.63;0.60;;;19.20;88.30;;;;;;5010913;28;20211;-70
2022/06/16 07:54:30;;;;;;;2.45;0.50;;;19.40;87.70;;;;;;5029103;28;20042;-70
2022/06/16 07:56:56;;;;;;;2.20;0.43;;;19.50;84.80;;;;;;5015104;28;20052;-70
2022/06/16 07:59:23;;;;;;;3.17;0.75;;;19.60;83.70;;;;;;5031729;28;20115;-70
2022/06/16 08:01:49;;;;;;;2.55;0.63;;;19.70;80.60;;;;;;5015067;28;20057;-70
2022/06/16 08:04:15;;;;;;;4.43;0.70;;;19.80;79.10;;;;;;5030858;28;20045;-70
2022/06/16 08:06:42;;;;;;;2.35;0.57;;;19.90;81.00;;;;;;5029055;28;20471;-70
2022/06/16 08:09:10;;;;;;;2.15;0.60;;;20.00;79.80;;;;;;5028272;28;20117;-70
2022/06/16 08:14:20;;;;;;;;;;;20.20;81.40;;;;;;5011706;28;20115;-70
2022/06/16 08:16:46;;;;;;;2.25;0.50;;;20.40;80.40;;;;;;5014812;28;19928;-71
2022/06/16 08:19:12;;;;;;;2.15;0.43;;;20.80;80.80;;;;;;5007369;28;20071;-71
2022/06/16 08:21:38;;;;;;;2.08;0.50;;;21.10;79.60;;;;;;5032730;28;20041;-71
2022/06/16 08:24:06;;;;;;;4.88;0.70;;;21.60;78.00;;;;;;5029740;28;20124;-70
2022/06/16 08:26:32;;;;;;;3.50;1.20;;;22.00;74.70;;;;;;5013275;28;20042;-70
2022/06/16 08:28:59;;;;;;;2.80;0.63;;;22.40;70.10;;;;;;5013995;28;20060;-70
2022/06/16 08:31:25;;;;;;;3.22;0.73;;;22.60;68.80;;;;;;5008866;28;20053;-69
2022/06/16 08:33:52;;;;;;;5.72;0.80;;;22.90;66.50;;;;;;5024588;28;20108;-70
2022/06/16 08:36:19;;;;;;;1.20;0.63;;;23.10;65.70;;;;;;5031268;28;20085;-70
2022/06/16 08:38:45;;;;;;;3.03;0.82;;;23.40;66.70;;;;;;5011413;28;20057;-71
2022/06/16 08:41:17;;;;;;;1.90;0.60;;;23.80;64.40;;;;;;5010786;28;20444;-71
2022/06/16 08:43:50;;;;;;;3.13;0.85;;;23.90;60.90;;;;;;5012397;28;20084;-71
2022/06/16 08:46:18;;;;;;;2.33;0.70;;;24.10;58.70;;;;;;5014087;28;20057;-71
2022/06/16 08:49:13;;;;;;;3.90;0.77;;;23.80;59.70;;;;;;5011810;28;20054;-71
2022/06/16 08:51:53;;;;;;;2.20;0.65;;;23.40;59.70;;;;;;5030981;28;20541;-71
2022/06/16 08:54:45;;;;;;;4.10;0.88;;;23.50;60.40;;;;;;5029388;28;20037;-71
2022/06/16 08:57:20;;;;;;;3.55;0.90;;;23.50;57.70;;;;;;5030270;28;20037;-70
2022/06/16 09:00:00;;;;;;;2.13;1.00;;;23.60;62.00;;;;;;5001933;28;20046;-71
2022/06/16 09:02:47;;;;;;;2.22;0.73;;;23.90;61.50;;;;;;4995727;28;20041;-71
2022/06/16 09:05:24;;;;;;;2.92;1.02;;;23.80;59.00;;;;;;5009847;28;20497;-71
2022/06/16 09:07:53;;;;;;;5.45;1.15;;;23.80;59.60;;;;;;5009945;28;20076;-71
2022/06/16 09:10:59;;;;;;;4.65;1.17;;;24.00;60.40;;;;;;5023060;28;20484;-71
2022/06/16 09:13:46;;;;;;;3.40;0.90;;;24.10;57.00;;;;;;4972412;28;20137;-71
2022/06/16 09:16:33;;;;;;;1.95;0.90;;;24.30;58.90;;;;;;5011819;28;20501;-71
2022/06/16 09:19:17;;;;;;;4.60;0.82;;;24.50;57.10;;;;;;5013074;28;20184;-71
2022/06/16 09:22:01;;;;;;;;;;;24.30;57.50;;;;;;5010487;28;20070;-71
2022/06/16 09:24:39;;;;;;;3.13;1.02;;;24.40;59.30;;;;;;5008071;28;19928;-71
2022/06/16 09:27:17;;;;;;;3.10;1.08;;;24.50;56.70;;;;;;5007865;28;20066;-71
2022/06/16 09:30:01;;;;;;;1.83;0.93;;;24.50;57.20;;;;;;5029212;28;20693;-71
2022/06/16 09:32:35;;;;;;;5.90;1.42;;;24.60;58.80;;;;;;4992571;28;20053;-71
2022/06/16 09:35:16;;;;;;;3.92;1.02;;;24.90;57.20;;;;;;5010395;28;20061;-71
2022/06/16 09:37:51;;;;;;;3.78;1.17;;;25.10;59.00;;;;;;5009156;28;20041;-71
2022/06/16 09:40:33;;;;;;;4.05;1.40;;;25.30;58.10;;;;;;5010171;28;20469;-71
2022/06/16 09:43:12;;;;;;;6.00;1.48;;;25.40;56.10;;;;;;5007482;28;20216;-71
2022/06/16 09:45:51;;;;;;;4.30;1.73;;;25.40;56.20;;;;;;5009944;28;20045;-71
2022/06/16 09:48:41;;;;;;;4.05;1.48;;;25.50;57.50;;;;;;5028270;28;20040;-71
2022/06/16 09:51:15;;;;;;;4.85;1.58;;;25.80;54.80;;;;;;5010038;28;20488;-71
2022/06/16 09:53:55;;;;;;;3.97;1.30;;;25.90;55.20;;;;;;5029506;28;20187;-71
2022/06/16 09:56:23;;;;;;;4.70;1.25;;;26.10;57.60;;;;;;5029733;28;20052;-72
2022/06/16 09:58:54;;;;;;;3.10;1.48;;;26.30;55.90;;;;;;5011865;28;20049;-71
2022/06/16 10:01:25;;;;;;;6.22;1.63;;;26.40;55.30;;;;;;5010296;28;20052;-70
2022/06/16 10:04:04;;;;;;;4.53;1.58;;;26.30;53.40;;;;;;5012958;28;20128;-71
2022/06/16 10:06:40;;;;;;;4.70;1.38;;;26.20;52.20;;;;;;5023264;28;20048;-71
2022/06/16 10:09:18;;;;;;;4.53;1.60;;;26.00;53.60;;;;;;5008215;28;20050;-71
2022/06/16 10:12:22;;;;;;;2.15;0.93;;;25.60;53.50;;;;;;5025279;28;20190;-72
2022/06/16 10:14:59;;;;;;;5.70;1.63;;;25.50;53.10;;;;;;5010956;28;20064;-70
2022/06/16 10:17:25;;;;;;;6.47;1.70;;;25.50;56.70;;;;;;5012571;28;20460;-71
2022/06/16 10:19:51;;;;;;;4.97;1.80;;;25.60;56.00;;;;;;5009646;28;20132;-72
2022/06/16 10:22:23;;;;;;;3.97;1.63;;;25.60;53.50;;;;;;5004039;28;20088;-73
2022/06/16 10:25:17;;;;;;;4.47;1.92;;;25.60;53.70;;;;;;5011803;28;20152;-70
2022/06/16 10:27:59;;;;;;;3.33;1.60;;;25.30;54.80;;;;;;5027385;28;20426;-70
2022/06/16 10:30:33;;;;;;;4.03;1.42;;;25.00;54.30;;;;;;5028875;28;20489;-68
2022/06/16 10:33:08;;;;;;;3.58;1.42;;;25.00;53.90;;;;;;5011885;28;20063;-68
2022/06/16 10:35:36;;;;;;;4.18;2.00;;;25.10;55.00;;;;;;5028702;28;20091;-69
2022/06/16 10:38:03;;;;;;;3.63;1.75;;;25.40;56.30;;;;;;5006193;28;20057;-68
2022/06/16 10:40:37;;;;;;;2.90;1.50;;;25.70;53.90;;;;;;5024507;28;20596;-69
2022/06/16 10:43:13;;;;;;;3.05;1.40;;;26.00;53.30;;;;;;5028263;28;20033;-71
2022/06/16 10:45:40;;;;;;;4.13;1.33;;;25.80;51.20;;;;;;5007965;28;20053;-67
2022/06/16 10:48:17;;;;;;;3.45;1.50;;;25.70;51.20;;;;;;5011957;28;20102;-69
2022/06/16 10:50:48;;;;;;;3.63;1.40;;;25.80;52.40;;;;;;5026141;28;20037;-72
2022/06/16 10:53:28;;;;;;;2.80;1.30;;;25.90;52.30;;;;;;5025142;28;20176;-67
2022/06/16 10:56:15;;;;;;;3.72;1.52;;;26.20;53.10;;;;;;5008984;28;20196;-69
2022/06/16 10:58:47;;;;;;;5.93;1.67;;;26.40;51.60;;;;;;5009649;28;20489;-70
2022/06/16 11:01:25;;;;;;;3.97;1.45;;;26.80;52.50;;;;;;5010079;28;20508;-69
2022/06/16 11:04:02;;;;;;;2.70;1.35;;;27.10;51.20;;;;;;5027056;28;20038;-71
2022/06/16 11:06:29;;;;;;;3.60;1.40;;;27.10;48.80;;;;;;5008306;28;20081;-70
2022/06/16 11:09:03;;;;;;;3.60;1.67;;;27.40;51.50;;;;;;5008354;28;20428;-74
2022/06/16 11:11:52;;;;;;;8.85;1.40;;;27.10;50.10;;;;;;5028287;28;20488;-67
2022/06/16 11:14:23;;;;;;;4.60;1.40;;;27.30;48.70;;;;;;5008564;28;20045;-67
2022/06/16 11:16:54;;;;;;;4.38;1.45;;;27.50;49.90;;;;;;5025267;28;20064;-67
2022/06/16 11:19:34;;;;;;;4.72;3.08;;;27.50;47.90;;;;;;5010911;28;20111;-67
2022/06/16 11:22:04;;;;;;;4.90;1.48;;;27.50;48.30;;;;;;5026807;28;20551;-66
2022/06/16 11:24:33;;;;;;;6.00;2.55;;;27.60;47.40;;;;;;5011240;28;20049;-67
2022/06/16 11:27:09;;;;;;;5.15;1.77;;;27.60;48.90;;;;;;5029721;28;20128;-67
2022/06/16 11:29:36;;;;;;;2.95;1.17;;;27.50;49.20;;;;;;5008611;28;20129;-66
2022/06/16 11:32:24;;;;;;;4.03;1.30;;;27.50;48.10;;;;;;5025759;28;20398;-67
2022/06/16 11:34:50;;;;;;;4.72;1.85;;;27.60;49.80;;;;;;5008602;28;20060;-67
2022/06/16 11:37:42;;;;;;;3.67;1.20;;;27.70;47.30;;;;;;5006502;28;20053;-68
2022/06/16 11:40:28;;;;;;;2.53;0.90;;;27.90;48.30;;;;;;5005885;28;20405;-68
2022/06/16 11:43:21;;;;;;;4.35;1.13;;;27.80;46.90;;;;;;5020260;28;20042;-68
2022/06/16 11:46:06;;;;;;;2.88;0.98;;;27.70;47.20;;;;;;5022845;28;20094;-68
2022/06/16 11:49:31;;;;;;;4.95;1.58;;;27.70;46.50;;;;;;5027273;28;20049;-67
2022/06/16 11:52:14;;;;;;;3.45;1.00;;;27.50;47.10;;;;;;4945486;29;20051;-67
2022/06/16 11:55:02;;;;;;;2.85;1.08;;;27.40;49.30;;;;;;5002152;28;20508;-68
2022/06/16 11:58:03;;;;;;;4.55;1.10;;;27.50;46.40;;;;;;5029227;28;20049;-69
2022/06/16 12:00:44;;;;;;;6.03;1.35;;;27.40;47.00;;;;;;5029500;28;20056;-69
2022/06/16 12:03:22;;;;;;;3.85;1.00;;;27.20;47.40;;;;;;5032041;28;20049;-69
2022/06/16 12:05:56;;;;;;;3.42;1.40;;;27.70;50.50;;;;;;5011970;28;20465;-68
2022/06/16 12:08:35;;;;;;;3.40;1.20;;;28.10;47.30;;;;;;5023557;28;20502;-68
2022/06/16 12:11:21;;;;;;;3.83;1.25;;;27.60;47.10;;;;;;5031551;28;20045;-68
2022/06/16 12:13:53;;;;;;;2.50;1.10;;;26.90;48.80;;;;;;5030104;28;20033;-67
2022/06/16 12:16:55;;;;;;;6.07;1.70;;;26.60;50.10;;;;;;5025633;28;20064;-68
2022/06/16 12:19:47;;;;;;;4.45;1.20;;;26.90;50.10;;;;;;4985543;28;20058;-67
2022/06/16 12:22:42;;;;;;;3.85;1.70;;;27.20;50.90;;;;;;5026768;28;20044;-68
2022/06/16 12:25:58;;;;;;;4.57;1.50;;;27.20;48.00;;;;;;5029677;28;20041;-68
2022/06/16 12:28:36;;;;;;;2.47;1.25;;;26.60;48.90;;;;;;4999766;28;20060;-69
2022/06/16 12:31:04;;;;;;;4.03;1.40;;;26.20;50.50;;;;;;5029482;28;20099;-67
2022/06/16 12:33:43;;;;;;;4.18;1.55;;;26.10;50.10;;;;;;5029134;28;20045;-68
2022/06/16 12:36:21;;;;;;;7.07;1.80;;;26.10;53.50;;;;;;5028737;28;20055;-67
2022/06/16 12:38:53;;;;;;;4.53;1.48;;;26.00;51.20;;;;;;5027127;28;20049;-67
2022/06/16 12:41:32;;;;;;;3.08;1.35;;;26.20;51.90;;;;;;5026748;28;20041;-67
2022/06/16 12:44:03;;;;;;;3.85;1.70;;;26.80;50.60;;;;;;5028527;28;20041;-68
2022/06/16 12:46:38;;;;;;;48.10;43.10;;;27.20;50.70;;;;;;5027232;28;20460;-70
2022/06/16 12:49:16;;;;;;;3.67;1.80;;;27.20;47.70;;;;;;5028786;28;20091;-69
2022/06/16 12:51:51;;;;;;;3.85;1.48;;;27.30;49.90;;;;;;5027251;28;20045;-68
2022/06/16 12:54:30;;;;;;;4.07;1.33;;;27.40;49.50;;;;;;5007705;28;20079;-68
2022/06/16 12:57:02;;;;;;;3.00;1.08;;;27.30;46.70;;;;;;5026264;28;20112;-68
2022/06/16 13:00:01;;;;;;;2.70;1.08;;;27.50;46.50;;;;;;5013796;28;20501;-68
2022/06/16 13:02:33;;;;;;;3.88;1.92;;;27.70;46.00;;;;;;4994517;28;20071;-68
2022/06/16 13:05:08;;;;;;;4.85;1.70;;;27.80;48.20;;;;;;5031038;28;20074;-67
2022/06/16 13:07:36;;;;;;;2.45;1.30;;;28.00;48.90;;;;;;5025746;28;20044;-68
2022/06/16 13:10:06;;;;;;;2.97;1.30;;;27.80;46.80;;;;;;5031445;28;20049;-68
2022/06/16 13:12:35;;;;;;;4.53;1.60;;;27.20;46.90;;;;;;5031962;28;20038;-67
2022/06/16 13:15:18;;;;;;;2.35;1.42;;;26.40;47.50;;;;;;5021109;28;20912;-67
2022/06/16 13:18:00;;;;;;;3.60;1.40;;;25.90;49.80;;;;;;5004800;28;20057;-67
2022/06/16 13:20:31;;;;;;;3.05;1.52;;;25.60;49.50;;;;;;5027947;28;20038;-67
2022/06/16 13:23:21;;;;;;;4.70;1.80;;;25.40;49.90;;;;;;5002843;28;20061;-67
2022/06/16 13:25:53;;;;;;;4.28;1.77;;;25.20;50.50;;;;;;5018908;28;20472;-66
2022/06/16 13:28:31;;;;;;;4.00;1.55;;;24.90;50.90;;;;;;5028398;28;20044;-66
2022/06/16 13:31:22;;;;;;;6.57;1.80;;;24.80;51.70;;;;;;5027414;28;20042;-67
2022/06/16 13:34:08;;;;;;;4.28;1.90;;;24.60;51.30;;;;;;5013783;28;20049;-67
2022/06/16 13:36:34;;;;;;;4.72;1.83;;;24.50;51.90;;;;;;5011820;28;20049;-67